createdAt,value
2019-04-11T00:02:17.406Z,5.65
2019-04-11T00:04:48.517Z,4.47
2019-04-11T00:07:20.337Z,3.98
2019-04-11T00:09:51.227Z,4.85
2019-04-11T00:12:24.283Z,4.97
2019-04-11T00:15:07.051Z,6.08
2019-04-11T00:17:38.354Z,4.42
2019-04-11T00:20:09.686Z,4.28
2019-04-11T00:22:39.999Z,5.53
2019-04-11T00:25:11.434Z,6.60
2019-04-11T00:27:41.988Z,4.03
2019-04-11T00:30:13.675Z,3.90
2019-04-11T00:32:45.519Z,4.15
2019-04-11T00:35:16.153Z,4.50
2019-04-11T00:37:47.465Z,5.45
2019-04-11T00:40:18.831Z,4.42
2019-04-11T00:42:50.557Z,4.00
2019-04-11T00:45:21.270Z,4.90
2019-04-11T00:47:51.842Z,4.95
2019-04-11T00:50:23.288Z,4.60
2019-04-11T00:52:53.762Z,5.28
2019-04-11T00:55:24.183Z,5.17
2019-04-11T00:57:55.044Z,5.20
2019-04-11T01:00:25.548Z,5.03
2019-04-11T01:02:57.859Z,4.87
2019-04-11T01:05:28.394Z,6.53
2019-04-11T01:07:59.676Z,5.17
2019-04-11T01:10:32.034Z,7.40
2019-04-11T01:13:02.635Z,6.60
2019-04-11T01:15:33.393Z,10.08
2019-04-11T01:18:05.597Z,5.53
2019-04-11T01:20:35.906Z,6.40
2019-04-11T01:23:07.348Z,6.67
2019-04-11T01:25:38.852Z,6.25
2019-04-11T01:28:10.191Z,5.70
2019-04-11T01:30:57.618Z,6.12
2019-04-11T01:33:28.227Z,5.85
2019-04-11T01:35:58.557Z,6.30
2019-04-11T01:38:30.493Z,7.10
2019-04-11T01:41:00.855Z,7.83
2019-04-11T01:43:32.501Z,6.78
2019-04-11T01:46:02.966Z,7.05
2019-04-11T01:48:41.717Z,5.85
2019-04-11T01:51:12.036Z,7.45
2019-04-11T01:53:43.561Z,7.60
2019-04-11T01:56:14.858Z,6.05
2019-04-11T01:58:45.303Z,6.53
2019-04-11T02:01:23.053Z,6.72
2019-04-11T02:04:06.092Z,6.15
2019-04-11T02:06:36.518Z,7.00
2019-04-11T02:09:13.763Z,7.40
2019-04-11T02:11:45.676Z,6.20
2019-04-11T02:14:18.058Z,8.95
2019-04-11T02:16:49.614Z,7.85
2019-04-11T02:19:20.421Z,7.85
2019-04-11T02:21:53.708Z,8.05
2019-04-11T02:24:30.246Z,6.95
2019-04-11T02:27:10.791Z,7.50
2019-04-11T02:29:41.082Z,6.65
2019-04-11T02:32:13.657Z,6.75
2019-04-11T02:34:45.984Z,6.60
2019-04-11T02:37:17.345Z,6.17
2019-04-11T02:39:49.470Z,7.40
2019-04-11T02:42:21.420Z,7.03
2019-04-11T02:45:09.324Z,6.42
2019-04-11T02:47:29.439Z,7.50
2019-04-11T02:49:59.085Z,6.62
2019-04-11T02:52:31.245Z,8.58
2019-04-11T02:55:03.452Z,7.10
2019-04-11T02:57:34.402Z,8.05
2019-04-11T03:00:06.800Z,6.70
2019-04-11T03:02:39.511Z,7.47
2019-04-11T03:05:13.758Z,7.58
2019-04-11T03:07:45.855Z,7.50
2019-04-11T03:10:16.579Z,7.70
2019-04-11T03:12:48.489Z,7.97
2019-04-11T03:15:33.928Z,9.35
2019-04-11T03:17:57.635Z,7.50
2019-04-11T03:20:32.473Z,7.25
2019-04-11T03:23:00.141Z,8.00
2019-04-11T03:25:30.504Z,8.58
2019-04-11T03:28:01.513Z,8.35
2019-04-11T03:30:46.464Z,8.28
2019-04-11T03:38:29.288Z,9.15
2019-04-11T03:41:00.596Z,8.35
2019-04-11T03:43:29.922Z,9.43
2019-04-11T03:46:10.896Z,10.28
2019-04-11T03:48:35.558Z,8.28
2019-04-11T03:50:56.673Z,8.20
2019-04-11T03:53:29.555Z,8.88
2019-04-11T03:56:01.488Z,9.58
2019-04-11T03:58:33.210Z,8.53
2019-04-11T04:01:08.361Z,8.73
2019-04-11T04:03:39.244Z,8.30
2019-04-11T04:06:10.177Z,11.00
2019-04-11T04:08:44.480Z,8.83
2019-04-11T04:11:22.202Z,9.33
2019-04-11T04:14:24.179Z,9.23
2019-04-11T04:17:30.726Z,10.50
2019-04-11T04:20:21.288Z,9.95
2019-04-11T04:23:00.939Z,10.05
2019-04-11T04:25:34.746Z,11.20
2019-04-11T04:28:13.654Z,8.73
2019-04-11T04:30:45.326Z,10.48
2019-04-11T04:33:17.659Z,10.25
2019-04-11T04:35:49.724Z,9.35
2019-04-11T04:38:23.338Z,12.65
2019-04-11T04:41:12.816Z,10.85
2019-04-11T04:43:41.321Z,10.63
2019-04-11T04:46:32.991Z,10.95
2019-04-11T04:48:45.555Z,9.03
2019-04-11T04:51:19.953Z,11.73
2019-04-11T04:53:55.667Z,10.68
2019-04-11T04:56:30.839Z,11.20
2019-04-11T04:58:59.768Z,11.15
2019-04-11T05:01:31.607Z,12.47
2019-04-11T05:04:02.271Z,9.60
2019-04-11T05:06:34.609Z,11.57
2019-04-11T05:09:08.526Z,9.78
2019-04-11T05:11:39.047Z,10.53
2019-04-11T05:14:21.014Z,9.83
2019-04-11T05:16:52.650Z,9.50
2019-04-11T05:19:23.765Z,10.82
2019-04-11T05:21:54.179Z,9.00
2019-04-11T05:24:28.320Z,8.85
2019-04-11T05:26:59.863Z,10.08
2019-04-11T05:29:33.519Z,9.43
2019-04-11T05:32:05.338Z,8.68
2019-04-11T05:34:41.516Z,9.20
2019-04-11T05:37:13.116Z,9.73
2019-04-11T05:39:45.424Z,9.30
2019-04-11T05:42:29.282Z,10.95
2019-04-11T05:45:00.335Z,9.93
2019-04-11T05:47:35.222Z,9.38
2019-04-11T05:50:15.925Z,9.68
2019-04-11T05:52:46.446Z,8.98
2019-04-11T05:55:17.655Z,9.50
2019-04-11T05:57:48.393Z,9.63
2019-04-11T06:00:41.128Z,8.75
2019-04-11T06:03:17.967Z,8.53
2019-04-11T06:05:59.685Z,8.15
2019-04-11T06:08:30.745Z,7.85
2019-04-11T06:11:26.686Z,7.65
2019-04-11T06:14:22.879Z,7.67
2019-04-11T06:17:02.999Z,8.18
2019-04-11T06:20:33.366Z,7.78
2019-04-11T06:23:23.865Z,7.05
2019-04-11T06:26:10.986Z,8.05
2019-04-11T06:28:42.372Z,7.87
2019-04-11T06:31:31.751Z,8.15
2019-04-11T06:34:05.098Z,8.85
2019-04-11T06:37:07.648Z,7.40
2019-04-11T06:39:59.297Z,8.60
2019-04-11T06:42:39.728Z,9.33
2019-04-11T06:45:35.756Z,8.25
2019-04-11T06:48:15.734Z,7.83
2019-04-11T06:50:51.515Z,7.40
2019-04-11T06:53:34.514Z,7.47
2019-04-11T06:56:30.335Z,10.65
2019-04-11T06:59:08.009Z,7.72
2019-04-11T07:01:40.598Z,9.23
2019-04-11T07:04:15.854Z,8.40
2019-04-11T07:06:48.159Z,8.20
2019-04-11T07:09:41.455Z,8.30
2019-04-11T07:12:16.146Z,8.23
2019-04-11T07:14:55.110Z,8.48
2019-04-11T07:17:43.858Z,7.72
2019-04-11T07:20:27.160Z,8.93
2019-04-11T07:23:15.697Z,8.80
2019-04-11T07:25:55.993Z,8.58
2019-04-11T07:28:45.999Z,8.23
2019-04-11T07:31:35.570Z,7.53
2019-04-11T07:34:31.445Z,7.55
2019-04-11T07:37:19.243Z,7.80
2019-04-11T07:40:26.405Z,7.70
2019-04-11T07:43:12.795Z,7.58
2019-04-11T07:45:58.211Z,7.00
2019-04-11T07:48:40.349Z,6.80
2019-04-11T07:51:25.307Z,7.33
2019-04-11T07:53:56.942Z,7.08
2019-04-11T07:56:55.882Z,7.42
2019-04-11T07:59:44.457Z,6.80
2019-04-11T08:02:43.323Z,9.03
2019-04-11T08:05:36.785Z,6.67
2019-04-11T08:08:25.695Z,6.78
2019-04-11T08:11:15.743Z,5.80
2019-04-11T08:13:56.883Z,6.75
2019-04-11T08:16:51.219Z,6.37
2019-04-11T08:19:40.649Z,6.50
2019-04-11T08:22:33.459Z,6.70
2019-04-11T08:25:11.213Z,6.25
2019-04-11T08:27:54.917Z,5.87
2019-04-11T08:30:19.969Z,6.40
2019-04-11T08:32:55.578Z,8.03
2019-04-11T08:35:53.641Z,6.80
2019-04-11T08:38:32.235Z,6.03
2019-04-11T08:41:17.640Z,6.03
2019-04-11T08:43:48.240Z,5.42
2019-04-11T08:46:27.216Z,6.25
2019-04-11T08:49:03.549Z,5.75
2019-04-11T08:51:34.083Z,5.45
2019-04-11T08:54:23.733Z,6.42
2019-04-11T08:56:55.653Z,5.65
2019-04-11T08:59:46.126Z,5.90
2019-04-11T09:02:20.838Z,6.00
2019-04-11T09:05:14.777Z,5.92
2019-04-11T09:07:49.789Z,5.37
2019-04-11T09:10:56.037Z,5.47
2019-04-11T09:13:47.289Z,5.72
2019-04-11T09:16:52.199Z,5.65
2019-04-11T09:19:32.775Z,5.65
2019-04-11T09:22:20.866Z,6.40
2019-04-11T09:25:21.246Z,5.78
2019-04-11T09:28:13.696Z,6.00
2019-04-11T09:30:57.412Z,6.03
2019-04-11T09:33:55.488Z,5.58
2019-04-11T09:36:45.722Z,6.15
2019-04-11T09:39:23.368Z,5.90
2019-04-11T09:42:10.015Z,7.30
2019-04-11T09:45:08.949Z,6.20
2019-04-11T09:48:09.406Z,5.75
2019-04-11T09:51:01.556Z,5.62
2019-04-11T09:53:32.931Z,5.78
2019-04-11T09:56:21.043Z,5.37
2019-04-11T09:58:52.543Z,5.20
2019-04-11T10:01:47.851Z,4.70
2019-04-11T10:04:18.876Z,4.90
2019-04-11T10:07:21.614Z,5.28
2019-04-11T10:10:12.842Z,5.33
2019-04-11T10:13:01.039Z,5.95
2019-04-11T10:15:48.339Z,5.25
2019-04-11T10:18:38.486Z,6.40
2019-04-11T10:21:06.873Z,5.85
2019-04-11T10:23:59.095Z,6.28
2019-04-11T10:26:32.021Z,5.90
2019-04-11T10:29:34.629Z,6.00
2019-04-11T10:32:06.671Z,6.05
2019-04-11T10:34:50.288Z,6.62
2019-04-11T10:37:21.400Z,6.50
2019-04-11T10:40:00.270Z,6.37
2019-04-11T10:42:32.727Z,5.47
2019-04-11T10:45:26.736Z,6.22
2019-04-11T10:47:59.383Z,5.87
2019-04-11T10:50:48.593Z,5.42
2019-04-11T10:53:24.825Z,7.08
2019-04-11T10:56:16.063Z,5.28
2019-04-11T10:58:55.789Z,5.80
2019-04-11T11:01:46.412Z,5.55
2019-04-11T11:04:19.977Z,5.30
2019-04-11T11:06:54.133Z,6.60
2019-04-11T11:09:37.722Z,6.58
2019-04-11T11:12:29.507Z,5.37
2019-04-11T11:15:25.426Z,6.58
2019-04-11T11:18:42.452Z,5.85
2019-04-11T11:21:05.574Z,6.58
2019-04-11T11:23:54.421Z,5.80
2019-04-11T11:26:28.242Z,6.15
2019-04-11T11:29:26.649Z,6.92
2019-04-11T11:32:07.478Z,6.87
2019-04-11T11:34:49.230Z,5.75
2019-04-11T11:37:55.568Z,6.20
2019-04-11T11:40:41.640Z,5.83
2019-04-11T11:43:37.556Z,6.03
2019-04-11T11:46:38.232Z,6.17
2019-04-11T11:49:37.536Z,6.42
2019-04-11T11:52:16.967Z,5.83
2019-04-11T11:54:51.569Z,6.37
2019-04-11T11:57:26.687Z,5.80
2019-04-11T12:00:05.057Z,6.12
2019-04-11T12:02:58.916Z,6.42
2019-04-11T12:05:37.286Z,6.78
2019-04-11T12:08:30.800Z,6.15
2019-04-11T12:11:04.022Z,6.25
2019-04-11T12:13:53.622Z,5.85
2019-04-11T12:16:42.332Z,6.85
2019-04-11T12:19:43.569Z,6.65
2019-04-11T12:22:04.291Z,6.12
2019-04-11T12:24:44.911Z,6.15
2019-04-11T12:27:35.019Z,5.58
2019-04-11T12:30:33.962Z,6.08
2019-04-11T12:33:12.974Z,5.87
2019-04-11T12:35:50.786Z,6.28
2019-04-11T12:38:27.859Z,6.22
2019-04-11T12:41:20.205Z,6.47
2019-04-11T12:44:16.463Z,6.10
2019-04-11T12:47:07.569Z,7.95
2019-04-11T12:49:52.870Z,5.87
2019-04-11T12:52:37.817Z,6.17
2019-04-11T12:55:11.109Z,6.58
2019-04-11T12:57:59.755Z,6.35
2019-04-11T13:00:38.093Z,5.70
2019-04-11T13:03:26.302Z,6.20
2019-04-11T13:06:01.166Z,5.97
2019-04-11T13:08:49.507Z,6.05
2019-04-11T13:11:20.262Z,5.75
2019-04-11T13:13:59.543Z,6.70
2019-04-11T13:16:29.953Z,7.17
2019-04-11T13:19:18.299Z,6.40
2019-04-11T13:21:52.128Z,6.17
2019-04-11T13:24:38.627Z,7.03
2019-04-11T13:27:12.861Z,6.83
2019-04-11T13:30:02.372Z,6.15
2019-04-11T13:32:41.970Z,7.03
2019-04-11T13:35:17.436Z,7.30
2019-04-11T13:38:05.871Z,6.58
2019-04-11T13:41:01.464Z,6.40
2019-04-11T13:43:46.547Z,7.60
2019-04-11T13:46:48.609Z,7.72
2019-04-11T13:49:44.184Z,6.50
2019-04-11T13:52:33.774Z,7.33
2019-04-11T13:55:41.960Z,7.37
2019-04-11T13:58:30.155Z,6.97
2019-04-11T14:01:06.176Z,6.87
2019-04-11T14:03:58.665Z,7.10
2019-04-11T14:06:33.374Z,6.97
2019-04-11T14:09:09.652Z,6.67
2019-04-11T14:11:51.215Z,6.45
2019-04-11T14:14:24.419Z,9.18
2019-04-11T14:17:18.695Z,7.47
2019-04-11T14:20:28.276Z,8.28
2019-04-11T14:23:13.639Z,7.97
2019-04-11T14:26:03.490Z,7.35
2019-04-11T14:28:37.773Z,6.70
2019-04-11T14:31:26.438Z,7.22
2019-04-11T14:34:02.115Z,7.55
2019-04-11T14:36:53.170Z,9.20
2019-04-11T14:39:25.876Z,7.33
2019-04-11T14:42:15.294Z,7.55
2019-04-11T14:44:46.943Z,6.92
2019-04-11T14:47:42.860Z,7.50
2019-04-11T14:50:13.514Z,7.90
2019-04-11T14:52:52.037Z,8.45
2019-04-11T14:55:24.055Z,6.97
2019-04-11T14:58:08.609Z,7.15
2019-04-11T15:00:40.672Z,8.03
2019-04-11T15:03:26.320Z,8.48
2019-04-11T15:06:22.586Z,7.53
2019-04-11T15:09:11.968Z,8.33
2019-04-11T15:12:03.523Z,8.28
2019-04-11T15:14:51.999Z,8.90
2019-04-11T15:17:26.359Z,7.17
2019-04-11T15:20:03.597Z,8.23
2019-04-11T15:22:46.764Z,7.35
2019-04-11T15:25:35.688Z,8.08
2019-04-11T15:28:34.504Z,8.65
2019-04-11T15:31:14.481Z,7.12
2019-04-11T15:34:10.679Z,7.50
2019-04-11T15:36:44.646Z,7.10
2019-04-11T15:39:44.605Z,7.40
2019-04-11T15:42:18.320Z,7.42
2019-04-11T15:45:07.411Z,7.70
2019-04-11T15:47:46.761Z,7.53
2019-04-11T15:50:40.007Z,7.53
2019-04-11T15:53:31.057Z,6.45
2019-04-11T15:56:20.021Z,6.70
2019-04-11T15:58:56.219Z,6.70
2019-04-11T16:01:46.036Z,6.67
2019-04-11T16:04:35.185Z,6.45
2019-04-11T16:07:25.512Z,6.45
2019-04-11T16:09:56.504Z,6.80
2019-04-11T16:12:37.718Z,7.90
2019-04-11T16:15:11.621Z,7.80
2019-04-11T16:18:00.753Z,7.10
2019-04-11T16:20:31.375Z,6.53
2019-04-11T16:23:20.860Z,6.87
2019-04-11T16:25:53.644Z,6.72
2019-04-11T16:28:33.179Z,7.53
2019-04-11T16:31:03.657Z,7.47
2019-04-11T16:33:52.191Z,9.95
2019-04-11T16:36:35.610Z,11.05
2019-04-11T16:39:25.012Z,8.30
2019-04-11T16:42:03.647Z,8.50
2019-04-11T16:44:54.836Z,7.60
2019-04-11T16:48:03.270Z,7.28
2019-04-11T16:50:33.971Z,7.95
2019-04-11T16:53:05.299Z,8.10
2019-04-11T16:55:36.857Z,7.42
2019-04-11T16:58:07.743Z,7.72
2019-04-11T17:00:38.215Z,7.53
2019-04-11T17:03:08.926Z,8.53
2019-04-11T17:05:40.963Z,9.08
2019-04-11T17:08:26.507Z,8.10
2019-04-11T17:11:03.120Z,8.15
2019-04-11T17:13:34.195Z,8.50
2019-04-11T17:16:06.643Z,8.55
2019-04-11T17:18:37.656Z,8.33
2019-04-11T17:21:08.799Z,7.90
2019-04-11T17:23:39.557Z,9.93
2019-04-11T17:26:09.937Z,8.48
2019-04-11T17:28:43.292Z,8.20
2019-04-11T17:31:12.887Z,8.48
2019-04-11T17:33:43.303Z,8.08
2019-04-11T17:36:14.473Z,7.42
2019-04-11T17:38:44.860Z,8.53
2019-04-11T17:41:15.235Z,8.43
2019-04-11T17:43:47.304Z,7.78
2019-04-11T17:46:17.763Z,7.97
2019-04-11T17:48:50.443Z,7.80
2019-04-11T17:51:21.073Z,7.25
2019-04-11T17:53:54.691Z,9.43
2019-04-11T17:56:25.599Z,8.98
2019-04-11T17:58:58.115Z,7.00
2019-04-11T18:01:40.707Z,7.92
2019-04-11T18:04:13.267Z,7.78
2019-04-11T18:06:47.267Z,7.37
2019-04-11T18:09:20.083Z,7.10
2019-04-11T18:11:49.834Z,8.78
2019-04-11T18:14:20.159Z,6.67
2019-04-11T18:16:50.538Z,6.95
2019-04-11T18:19:20.915Z,6.80
2019-04-11T18:21:51.289Z,8.78
2019-04-11T18:24:21.886Z,6.72
2019-04-11T18:26:52.528Z,6.90
2019-04-11T18:29:23.481Z,6.33
2019-04-11T18:31:54.382Z,6.65
2019-04-11T18:34:24.719Z,6.58
2019-04-11T18:36:55.151Z,6.72
2019-04-11T18:39:25.399Z,6.45
2019-04-11T18:41:57.647Z,6.33
2019-04-11T18:44:40.055Z,6.47
2019-04-11T18:47:11.570Z,7.25
2019-04-11T18:49:41.934Z,7.20
2019-04-11T18:52:19.739Z,5.62
2019-04-11T18:54:45.184Z,5.85
2019-04-11T18:57:17.141Z,6.40
2019-04-11T18:59:47.551Z,6.67
2019-04-11T19:02:18.036Z,6.60
2019-04-11T19:04:48.530Z,6.87
2019-04-11T19:07:27.580Z,7.12
2019-04-11T19:09:51.215Z,9.88
2019-04-11T19:12:21.815Z,6.37
2019-04-11T19:14:52.347Z,6.42
2019-04-11T19:17:24.915Z,6.85
2019-04-11T19:19:55.318Z,6.58
2019-04-11T19:22:37.136Z,6.65
2019-04-11T19:24:57.907Z,8.80
2019-04-11T19:27:30.108Z,7.58
2019-04-11T19:30:01.019Z,7.65
2019-04-11T19:32:31.433Z,7.20
2019-04-11T19:35:02.080Z,10.48
2019-04-11T19:37:33.029Z,7.65
2019-04-11T19:40:03.435Z,9.33
2019-04-11T19:42:33.998Z,8.25
2019-04-11T19:45:04.989Z,8.95
2019-04-11T19:47:35.531Z,8.23
2019-04-11T19:50:06.655Z,8.23
2019-04-11T19:52:45.158Z,8.03
2019-04-11T19:55:17.027Z,9.43
2019-04-11T19:57:49.104Z,8.18
2019-04-11T20:00:21.495Z,8.13
2019-04-11T20:02:51.842Z,8.05
2019-04-11T20:05:23.667Z,8.63
2019-04-11T20:07:54.015Z,8.43
2019-04-11T20:10:24.355Z,8.65
2019-04-11T20:12:54.718Z,8.78
2019-04-11T20:15:36.493Z,10.68
2019-04-11T20:17:57.756Z,8.20
2019-04-11T20:20:30.887Z,8.75
2019-04-11T20:23:01.378Z,10.38
2019-04-11T20:25:32.077Z,8.80
2019-04-11T20:28:02.572Z,9.13
2019-04-11T20:30:34.080Z,7.97
2019-04-11T20:33:04.749Z,8.73
2019-04-11T20:35:35.163Z,8.50
2019-04-11T20:38:16.889Z,8.33
2019-04-11T20:40:52.087Z,8.58
2019-04-11T20:43:22.336Z,9.03
2019-04-11T20:45:53.531Z,9.35
2019-04-11T20:48:24.260Z,7.83
2019-04-11T20:50:54.671Z,9.28
2019-04-11T20:53:25.069Z,8.05
2019-04-11T20:55:55.480Z,9.23
2019-04-11T20:58:27.415Z,8.35
2019-04-11T21:00:58.441Z,8.75
2019-04-11T21:03:30.206Z,9.30
2019-04-11T21:06:02.564Z,8.73
2019-04-11T21:08:33.708Z,8.28
2019-04-11T21:11:05.366Z,8.45
2019-04-11T21:13:38.147Z,8.18
2019-04-11T21:16:08.103Z,7.87
2019-04-11T21:18:38.405Z,8.90
2019-04-11T21:21:10.979Z,9.53
2019-04-11T21:23:41.431Z,8.83
2019-04-11T21:26:11.862Z,7.72
2019-04-11T21:28:42.680Z,8.58
2019-04-11T21:31:13.029Z,8.03
2019-04-11T21:33:43.536Z,8.85
2019-04-11T21:36:15.548Z,8.48
2019-04-11T21:38:46.118Z,7.90
2019-04-11T21:41:16.499Z,8.90
2019-04-11T21:43:46.967Z,8.53
2019-04-11T21:46:17.701Z,8.78
2019-04-11T21:48:50.045Z,9.08
2019-04-11T21:51:20.788Z,9.33
2019-04-11T21:53:51.315Z,8.70
2019-04-11T21:56:21.716Z,8.88
2019-04-11T21:58:52.607Z,9.93
2019-04-11T22:01:24.810Z,9.38
2019-04-11T22:03:57.695Z,9.05
2019-04-11T22:06:30.609Z,9.83
2019-04-11T22:09:04.855Z,10.05
2019-04-11T22:11:38.433Z,9.13
2019-04-11T22:14:10.966Z,9.28
2019-04-11T22:16:44.067Z,9.95
2019-04-11T22:19:14.353Z,9.58
2019-04-11T22:21:46.003Z,9.35
2019-04-11T22:24:16.513Z,8.70
2019-04-11T22:26:50.619Z,9.23
2019-04-11T22:29:24.822Z,9.35
2019-04-11T22:31:55.795Z,9.48
2019-04-11T22:34:30.605Z,8.80
2019-04-11T22:37:01.000Z,9.48
2019-04-11T22:39:32.140Z,8.48
2019-04-11T22:42:02.976Z,8.80
2019-04-11T22:44:35.545Z,8.15
2019-04-11T22:47:08.000Z,8.53
2019-04-11T22:49:40.009Z,7.60
2019-04-11T22:52:11.374Z,8.05
2019-04-11T22:54:42.613Z,8.08
2019-04-11T22:57:14.365Z,8.80
2019-04-11T22:59:46.337Z,8.28
2019-04-11T23:02:38.547Z,9.40
2019-04-11T23:05:09.699Z,8.23
2019-04-11T23:07:40.188Z,9.35
2019-04-11T23:10:10.683Z,8.43
2019-04-11T23:12:42.897Z,9.25
2019-04-11T23:15:15.113Z,8.38
2019-04-11T23:17:45.600Z,8.75
2019-04-11T23:20:17.260Z,9.20
2019-04-11T23:22:47.673Z,8.43
2019-04-11T23:25:18.028Z,7.90
2019-04-11T23:27:48.456Z,7.87
2019-04-11T23:30:19.107Z,11.28
2019-04-11T23:32:51.697Z,8.63
2019-04-11T23:35:21.980Z,8.50
2019-04-11T23:37:53.297Z,8.40
2019-04-11T23:40:23.741Z,8.35
2019-04-11T23:42:54.192Z,8.73
2019-04-11T23:45:27.060Z,9.00
2019-04-11T23:47:57.771Z,9.05
2019-04-11T23:50:28.101Z,8.60
2019-04-11T23:52:58.428Z,9.15
2019-04-11T23:55:30.774Z,8.98
2019-04-11T23:58:02.273Z,9.68
